CheckWX is a tool to help pilots better visualize weather data.  It is not intended as a substitute for an official pre-flight weather briefing.

08:11:01 UTC

CZBF METAR
Bathurst Airport
Bathurst, Canada
Current

11 mins ago

CZBF 220800Z AUTO 28006KT 9SM CLR M13/M16 A2995 RMK SLP148
Observed
Feb-22 @ 08:00 UTC
Wind
  • 280° at 6 KTS
Visibility
9 SM
Flight Rules
VFR
Cloud Levels
  • Clear skies
Temperature
-13°C / 9°F
Dewpoint
-16°C / 3°F
Humidity
78%
Altimeter
29.95" Hg
Pressure
1014.8 hPa
Previous

1 hour ago

CZBF 220700Z AUTO 31006KT 9SM CLR M13/M15 A2992 RMK SLP140
Observed
Feb-22 @ 07:00 UTC
Wind
  • 310° at 6 KTS
Visibility
9 SM
Flight Rules
VFR
Cloud Levels
  • Clear skies
Temperature
-13°C / 9°F
Dewpoint
-15°C / 5°F
Humidity
85%
Altimeter
29.92" Hg
Pressure
1014 hPa
Previous

2 hours ago

CZBF 220600Z AUTO 23004KT 9SM CLR M17/M19 A2989 RMK SLP128
Observed
Feb-22 @ 06:00 UTC
Wind
  • 230° at 4 KTS
Visibility
9 SM
Flight Rules
VFR
Cloud Levels
  • Clear skies
Temperature
-17°C / 1°F
Dewpoint
-19°C / -2°F
Humidity
85%
Altimeter
29.89" Hg
Pressure
1012.8 hPa